sensor_id;sensor_type;location;lat;lon;timestamp;P1;durP1;ratioP1;P2;durP2;ratioP2
44137;SDS011;29800;55.942;37.314;2023-01-01T00:01:26;20.45;;;11.55;;
44137;SDS011;29800;55.942;37.314;2023-01-01T00:03:54;16.65;;;10.60;;
44137;SDS011;29800;55.942;37.314;2023-01-01T00:06:21;19.67;;;11.32;;
44137;SDS011;29800;55.942;37.314;2023-01-01T00:08:47;16.48;;;10.13;;
44137;SDS011;29800;55.942;37.314;2023-01-01T00:11:34;16.00;;;10.57;;
44137;SDS011;29800;55.942;37.314;2023-01-01T00:14:00;16.67;;;9.98;;
44137;SDS011;29800;55.942;37.314;2023-01-01T00:16:26;17.58;;;9.32;;
44137;SDS011;29800;55.942;37.314;2023-01-01T00:18:52;10.93;;;6.75;;
44137;SDS011;29800;55.942;37.314;2023-01-01T00:21:18;11.63;;;6.75;;
44137;SDS011;29800;55.942;37.314;2023-01-01T00:23:44;13.43;;;7.90;;
44137;SDS011;29800;55.942;37.314;2023-01-01T00:26:14;13.18;;;7.40;;
44137;SDS011;29800;55.942;37.314;2023-01-01T00:28:42;13.52;;;7.25;;
44137;SDS011;29800;55.942;37.314;2023-01-01T00:31:18;11.20;;;7.28;;
44137;SDS011;29800;55.942;37.314;2023-01-01T00:33:49;14.40;;;7.60;;
44137;SDS011;29800;55.942;37.314;2023-01-01T00:36:17;11.30;;;6.35;;
44137;SDS011;29800;55.942;37.314;2023-01-01T00:38:44;12.63;;;7.25;;
44137;SDS011;29800;55.942;37.314;2023-01-01T00:41:11;11.00;;;7.60;;
44137;SDS011;29800;55.942;37.314;2023-01-01T00:43:39;13.38;;;7.35;;
44137;SDS011;29800;55.942;37.314;2023-01-01T00:46:05;10.23;;;6.28;;
44137;SDS011;29800;55.942;37.314;2023-01-01T00:48:33;9.43;;;6.05;;
44137;SDS011;29800;55.942;37.314;2023-01-01T00:51:00;12.77;;;6.72;;
44137;SDS011;29800;55.942;37.314;2023-01-01T00:53:26;13.52;;;7.10;;
44137;SDS011;29800;55.942;37.314;2023-01-01T00:55:52;13.82;;;7.53;;
44137;SDS011;29800;55.942;37.314;2023-01-01T00:58:21;9.55;;;6.60;;
44137;SDS011;29800;55.942;37.314;2023-01-01T01:00:49;9.93;;;6.88;;
44137;SDS011;29800;55.942;37.314;2023-01-01T01:03:16;10.80;;;6.80;;
44137;SDS011;29800;55.942;37.314;2023-01-01T01:05:56;7.95;;;4.78;;
44137;SDS011;29800;55.942;37.314;2023-01-01T01:08:24;10.18;;;4.90;;
44137;SDS011;29800;55.942;37.314;2023-01-01T01:10:51;9.23;;;5.22;;
44137;SDS011;29800;55.942;37.314;2023-01-01T01:13:18;9.73;;;5.57;;
44137;SDS011;29800;55.942;37.314;2023-01-01T01:15:44;9.40;;;5.43;;
44137;SDS011;29800;55.942;37.314;2023-01-01T01:18:11;7.88;;;5.30;;
44137;SDS011;29800;55.942;37.314;2023-01-01T01:20:37;8.30;;;4.53;;
44137;SDS011;29800;55.942;37.314;2023-01-01T01:23:03;8.35;;;5.18;;
44137;SDS011;29800;55.942;37.314;2023-01-01T01:25:30;6.82;;;4.82;;
44137;SDS011;29800;55.942;37.314;2023-01-01T01:27:55;7.63;;;5.35;;
44137;SDS011;29800;55.942;37.314;2023-01-01T01:30:21;6.88;;;4.50;;
44137;SDS011;29800;55.942;37.314;2023-01-01T01:32:47;7.30;;;4.80;;
44137;SDS011;29800;55.942;37.314;2023-01-01T01:35:14;5.88;;;4.05;;
44137;SDS011;29800;55.942;37.314;2023-01-01T01:37:40;8.85;;;4.90;;
44137;SDS011;29800;55.942;37.314;2023-01-01T01:40:06;7.25;;;4.13;;
44137;SDS011;29800;55.942;37.314;2023-01-01T01:42:32;6.47;;;4.45;;
44137;SDS011;29800;55.942;37.314;2023-01-01T01:44:59;8.55;;;4.68;;
44137;SDS011;29800;55.942;37.314;2023-01-01T01:50:10;8.07;;;4.20;;
44137;SDS011;29800;55.942;37.314;2023-01-01T01:52:39;7.38;;;4.40;;
44137;SDS011;29800;55.942;37.314;2023-01-01T01:55:09;7.32;;;3.58;;
44137;SDS011;29800;55.942;37.314;2023-01-01T01:57:36;7.00;;;3.90;;
44137;SDS011;29800;55.942;37.314;2023-01-01T02:00:04;9.23;;;4.30;;
44137;SDS011;29800;55.942;37.314;2023-01-01T02:02:33;6.93;;;4.57;;
44137;SDS011;29800;55.942;37.314;2023-01-01T02:05:03;6.57;;;3.90;;
44137;SDS011;29800;55.942;37.314;2023-01-01T02:07:30;8.35;;;3.53;;
44137;SDS011;29800;55.942;37.314;2023-01-01T02:09:58;6.40;;;3.92;;
44137;SDS011;29800;55.942;37.314;2023-01-01T02:12:25;6.70;;;3.58;;
44137;SDS011;29800;55.942;37.314;2023-01-01T02:14:52;5.82;;;3.90;;
44137;SDS011;29800;55.942;37.314;2023-01-01T02:17:23;5.90;;;3.90;;
44137;SDS011;29800;55.942;37.314;2023-01-01T02:20:03;5.78;;;3.90;;
44137;SDS011;29800;55.942;37.314;2023-01-01T02:25:27;4.47;;;3.03;;
44137;SDS011;29800;55.942;37.314;2023-01-01T02:28:14;6.88;;;3.72;;
44137;SDS011;29800;55.942;37.314;2023-01-01T02:30:55;5.25;;;3.70;;
44137;SDS011;29800;55.942;37.314;2023-01-01T02:33:24;4.93;;;3.20;;
44137;SDS011;29800;55.942;37.314;2023-01-01T02:36:01;6.40;;;3.17;;
44137;SDS011;29800;55.942;37.314;2023-01-01T02:38:31;5.35;;;3.85;;
44137;SDS011;29800;55.942;37.314;2023-01-01T02:43:28;7.60;;;3.75;;
44137;SDS011;29800;55.942;37.314;2023-01-01T02:45:54;5.88;;;3.92;;
44137;SDS011;29800;55.942;37.314;2023-01-01T02:53:40;6.18;;;3.05;;
44137;SDS011;29800;55.942;37.314;2023-01-01T02:56:32;4.70;;;3.13;;
44137;SDS011;29800;55.942;37.314;2023-01-01T03:02:34;5.32;;;3.00;;
44137;SDS011;29800;55.942;37.314;2023-01-01T03:11:24;6.07;;;3.83;;
44137;SDS011;29800;55.942;37.314;2023-01-01T03:14:01;6.03;;;3.92;;
44137;SDS011;29800;55.942;37.314;2023-01-01T03:16:50;6.47;;;3.83;;
44137;SDS011;29800;55.942;37.314;2023-01-01T03:19:24;7.25;;;4.10;;
44137;SDS011;29800;55.942;37.314;2023-01-01T03:24:47;8.50;;;4.07;;
44137;SDS011;29800;55.942;37.314;2023-01-01T03:27:22;9.52;;;4.40;;
44137;SDS011;29800;55.942;37.314;2023-01-01T03:29:58;7.85;;;4.10;;
44137;SDS011;29800;55.942;37.314;2023-01-01T03:32:30;6.57;;;4.50;;
44137;SDS011;29800;55.942;37.314;2023-01-01T03:35:43;7.68;;;4.47;;
44137;SDS011;29800;55.942;37.314;2023-01-01T03:38:23;9.13;;;4.90;;
44137;SDS011;29800;55.942;37.314;2023-01-01T03:41:00;6.63;;;4.00;;
44137;SDS011;29800;55.942;37.314;2023-01-01T03:43:49;9.38;;;6.25;;
44137;SDS011;29800;55.942;37.314;2023-01-01T03:46:22;7.93;;;5.25;;
44137;SDS011;29800;55.942;37.314;2023-01-01T03:48:51;5.68;;;3.85;;
44137;SDS011;29800;55.942;37.314;2023-01-01T03:52:07;7.40;;;4.80;;
44137;SDS011;29800;55.942;37.314;2023-01-01T03:54:27;6.60;;;4.03;;
44137;SDS011;29800;55.942;37.314;2023-01-01T03:59:40;6.88;;;4.47;;
44137;SDS011;29800;55.942;37.314;2023-01-01T04:02:15;7.15;;;4.50;;
44137;SDS011;29800;55.942;37.314;2023-01-01T04:04:45;6.53;;;4.18;;
44137;SDS011;29800;55.942;37.314;2023-01-01T04:07:13;11.73;;;7.57;;
44137;SDS011;29800;55.942;37.314;2023-01-01T04:09:40;8.57;;;5.75;;
44137;SDS011;29800;55.942;37.314;2023-01-01T04:12:12;9.98;;;5.40;;
44137;SDS011;29800;55.942;37.314;2023-01-01T04:14:41;7.07;;;5.05;;
44137;SDS011;29800;55.942;37.314;2023-01-01T04:17:08;6.68;;;4.45;;
44137;SDS011;29800;55.942;37.314;2023-01-01T04:19:35;11.43;;;5.03;;
44137;SDS011;29800;55.942;37.314;2023-01-01T04:22:01;12.52;;;5.28;;
44137;SDS011;29800;55.942;37.314;2023-01-01T04:24:27;7.55;;;5.10;;
44137;SDS011;29800;55.942;37.314;2023-01-01T04:26:54;6.82;;;4.53;;
44137;SDS011;29800;55.942;37.314;2023-01-01T04:29:21;6.68;;;4.75;;
44137;SDS011;29800;55.942;37.314;2023-01-01T04:31:47;7.00;;;4.80;;
44137;SDS011;29800;55.942;37.314;2023-01-01T04:34:15;7.50;;;4.22;;
44137;SDS011;29800;55.942;37.314;2023-01-01T04:36:41;6.70;;;4.43;;
44137;SDS011;29800;55.942;37.314;2023-01-01T04:39:07;8.55;;;5.38;;
44137;SDS011;29800;55.942;37.314;2023-01-01T04:41:33;6.00;;;4.30;;
44137;SDS011;29800;55.942;37.314;2023-01-01T04:44:00;6.70;;;4.78;;
44137;SDS011;29800;55.942;37.314;2023-01-01T04:46:26;7.03;;;4.35;;
44137;SDS011;29800;55.942;37.314;2023-01-01T04:48:52;7.45;;;4.50;;
44137;SDS011;29800;55.942;37.314;2023-01-01T04:51:19;7.18;;;4.68;;
44137;SDS011;29800;55.942;37.314;2023-01-01T04:53:46;7.07;;;4.60;;
44137;SDS011;29800;55.942;37.314;2023-01-01T04:56:13;6.10;;;4.53;;
44137;SDS011;29800;55.942;37.314;2023-01-01T04:58:42;6.30;;;4.15;;
44137;SDS011;29800;55.942;37.314;2023-01-01T05:01:16;7.65;;;4.38;;
44137;SDS011;29800;55.942;37.314;2023-01-01T05:03:45;6.85;;;4.63;;
44137;SDS011;29800;55.942;37.314;2023-01-01T05:06:12;7.15;;;4.53;;
44137;SDS011;29800;55.942;37.314;2023-01-01T05:08:40;7.25;;;4.63;;
44137;SDS011;29800;55.942;37.314;2023-01-01T05:11:11;6.88;;;4.43;;
44137;SDS011;29800;55.942;37.314;2023-01-01T05:13:38;6.43;;;4.50;;
44137;SDS011;29800;55.942;37.314;2023-01-01T05:16:06;7.22;;;4.60;;
44137;SDS011;29800;55.942;37.314;2023-01-01T05:18:35;6.35;;;4.10;;
44137;SDS011;29800;55.942;37.314;2023-01-01T05:21:05;7.88;;;4.53;;
44137;SDS011;29800;55.942;37.314;2023-01-01T05:23:42;7.30;;;4.55;;
44137;SDS011;29800;55.942;37.314;2023-01-01T05:26:12;6.78;;;4.38;;
44137;SDS011;29800;55.942;37.314;2023-01-01T05:28:45;8.10;;;5.03;;
44137;SDS011;29800;55.942;37.314;2023-01-01T05:31:13;6.55;;;4.65;;
44137;SDS011;29800;55.942;37.314;2023-01-01T05:33:44;6.40;;;4.72;;
44137;SDS011;29800;55.942;37.314;2023-01-01T05:36:13;9.45;;;5.00;;
44137;SDS011;29800;55.942;37.314;2023-01-01T05:38:43;7.18;;;4.80;;
44137;SDS011;29800;55.942;37.314;2023-01-01T05:41:10;6.15;;;4.43;;
44137;SDS011;29800;55.942;37.314;2023-01-01T05:43:38;7.15;;;4.60;;
44137;SDS011;29800;55.942;37.314;2023-01-01T05:46:05;7.45;;;4.93;;
44137;SDS011;29800;55.942;37.314;2023-01-01T05:48:33;7.57;;;5.68;;
44137;SDS011;29800;55.942;37.314;2023-01-01T05:51:02;6.85;;;4.78;;
44137;SDS011;29800;55.942;37.314;2023-01-01T05:53:30;6.88;;;4.68;;
44137;SDS011;29800;55.942;37.314;2023-01-01T05:55:56;7.32;;;4.97;;
44137;SDS011;29800;55.942;37.314;2023-01-01T05:58:23;7.97;;;4.93;;
44137;SDS011;29800;55.942;37.314;2023-01-01T06:00:49;6.45;;;4.70;;
44137;SDS011;29800;55.942;37.314;2023-01-01T06:03:15;5.95;;;4.07;;
44137;SDS011;29800;55.942;37.314;2023-01-01T06:05:42;7.65;;;4.40;;
44137;SDS011;29800;55.942;37.314;2023-01-01T06:08:08;6.68;;;4.63;;
44137;SDS011;29800;55.942;37.314;2023-01-01T06:10:34;6.63;;;4.85;;
44137;SDS011;29800;55.942;37.314;2023-01-01T06:13:00;5.72;;;4.40;;
44137;SDS011;29800;55.942;37.314;2023-01-01T06:15:26;7.35;;;4.95;;
44137;SDS011;29800;55.942;37.314;2023-01-01T06:17:53;8.48;;;4.70;;
44137;SDS011;29800;55.942;37.314;2023-01-01T06:20:19;6.47;;;4.55;;
44137;SDS011;29800;55.942;37.314;2023-01-01T06:22:45;8.32;;;4.45;;
44137;SDS011;29800;55.942;37.314;2023-01-01T06:25:12;8.70;;;4.65;;
44137;SDS011;29800;55.942;37.314;2023-01-01T06:27:38;6.03;;;4.45;;
44137;SDS011;29800;55.942;37.314;2023-01-01T06:30:04;7.40;;;4.25;;
44137;SDS011;29800;55.942;37.314;2023-01-01T06:32:31;5.47;;;3.72;;
44137;SDS011;29800;55.942;37.314;2023-01-01T06:34:57;4.97;;;3.75;;
44137;SDS011;29800;55.942;37.314;2023-01-01T06:37:23;5.13;;;3.65;;
44137;SDS011;29800;55.942;37.314;2023-01-01T06:39:50;5.63;;;3.88;;
44137;SDS011;29800;55.942;37.314;2023-01-01T06:42:16;5.53;;;3.83;;
44137;SDS011;29800;55.942;37.314;2023-01-01T06:44:42;6.00;;;4.75;;
44137;SDS011;29800;55.942;37.314;2023-01-01T06:47:08;5.72;;;3.22;;
44137;SDS011;29800;55.942;37.314;2023-01-01T06:49:34;4.95;;;3.75;;
44137;SDS011;29800;55.942;37.314;2023-01-01T06:52:00;4.97;;;3.65;;
44137;SDS011;29800;55.942;37.314;2023-01-01T06:54:27;5.38;;;3.90;;
44137;SDS011;29800;55.942;37.314;2023-01-01T06:56:53;4.93;;;3.55;;
44137;SDS011;29800;55.942;37.314;2023-01-01T06:59:19;5.85;;;3.35;;
44137;SDS011;29800;55.942;37.314;2023-01-01T07:01:45;4.57;;;3.38;;
44137;SDS011;29800;55.942;37.314;2023-01-01T07:04:12;4.50;;;3.05;;
44137;SDS011;29800;55.942;37.314;2023-01-01T07:06:39;4.60;;;3.17;;
44137;SDS011;29800;55.942;37.314;2023-01-01T07:09:06;4.75;;;3.35;;
44137;SDS011;29800;55.942;37.314;2023-01-01T07:11:32;5.15;;;3.47;;
44137;SDS011;29800;55.942;37.314;2023-01-01T07:14:00;4.32;;;3.22;;
44137;SDS011;29800;55.942;37.314;2023-01-01T07:16:26;5.93;;;3.50;;
44137;SDS011;29800;55.942;37.314;2023-01-01T07:18:59;4.72;;;2.88;;
44137;SDS011;29800;55.942;37.314;2023-01-01T07:23:51;6.43;;;4.28;;
44137;SDS011;29800;55.942;37.314;2023-01-01T07:26:17;4.45;;;3.00;;
44137;SDS011;29800;55.942;37.314;2023-01-01T07:28:43;5.65;;;3.30;;
44137;SDS011;29800;55.942;37.314;2023-01-01T07:31:09;4.88;;;3.00;;
44137;SDS011;29800;55.942;37.314;2023-01-01T07:33:35;4.25;;;2.92;;
44137;SDS011;29800;55.942;37.314;2023-01-01T07:36:01;4.63;;;3.10;;
44137;SDS011;29800;55.942;37.314;2023-01-01T07:38:27;4.88;;;2.95;;
44137;SDS011;29800;55.942;37.314;2023-01-01T07:40:55;4.53;;;2.70;;
44137;SDS011;29800;55.942;37.314;2023-01-01T07:43:21;3.92;;;2.60;;
44137;SDS011;29800;55.942;37.314;2023-01-01T07:45:47;4.63;;;2.83;;
44137;SDS011;29800;55.942;37.314;2023-01-01T07:48:13;4.35;;;3.00;;
44137;SDS011;29800;55.942;37.314;2023-01-01T07:50:40;5.05;;;3.08;;
44137;SDS011;29800;55.942;37.314;2023-01-01T07:53:07;4.22;;;2.67;;
44137;SDS011;29800;55.942;37.314;2023-01-01T07:55:33;5.20;;;2.65;;
44137;SDS011;29800;55.942;37.314;2023-01-01T07:57:59;4.15;;;2.80;;
44137;SDS011;29800;55.942;37.314;2023-01-01T08:00:26;3.25;;;2.25;;
44137;SDS011;29800;55.942;37.314;2023-01-01T08:02:52;3.63;;;2.50;;
44137;SDS011;29800;55.942;37.314;2023-01-01T08:05:19;2.95;;;2.17;;
44137;SDS011;29800;55.942;37.314;2023-01-01T08:07:45;3.92;;;2.55;;
44137;SDS011;29800;55.942;37.314;2023-01-01T08:10:15;3.75;;;2.33;;
44137;SDS011;29800;55.942;37.314;2023-01-01T08:12:42;3.97;;;2.53;;
44137;SDS011;29800;55.942;37.314;2023-01-01T08:15:09;4.80;;;2.55;;
44137;SDS011;29800;55.942;37.314;2023-01-01T08:17:36;4.38;;;2.40;;
44137;SDS011;29800;55.942;37.314;2023-01-01T08:20:02;8.68;;;4.80;;
44137;SDS011;29800;55.942;37.314;2023-01-01T08:22:29;10.00;;;4.97;;
44137;SDS011;29800;55.942;37.314;2023-01-01T08:24:55;11.77;;;5.40;;
44137;SDS011;29800;55.942;37.314;2023-01-01T08:27:21;12.32;;;5.30;;
44137;SDS011;29800;55.942;37.314;2023-01-01T08:29:47;7.93;;;4.25;;
44137;SDS011;29800;55.942;37.314;2023-01-01T08:32:14;5.30;;;3.25;;
44137;SDS011;29800;55.942;37.314;2023-01-01T08:34:40;3.42;;;2.30;;
44137;SDS011;29800;55.942;37.314;2023-01-01T08:37:10;4.55;;;2.63;;
44137;SDS011;29800;55.942;37.314;2023-01-01T08:39:38;5.47;;;3.38;;
44137;SDS011;29800;55.942;37.314;2023-01-01T08:42:04;5.43;;;3.40;;
44137;SDS011;29800;55.942;37.314;2023-01-01T08:44:30;4.97;;;2.78;;
44137;SDS011;29800;55.942;37.314;2023-01-01T08:46:56;4.40;;;3.05;;
44137;SDS011;29800;55.942;37.314;2023-01-01T08:49:22;5.03;;;2.78;;
44137;SDS011;29800;55.942;37.314;2023-01-01T08:51:48;4.40;;;2.72;;
44137;SDS011;29800;55.942;37.314;2023-01-01T08:54:14;5.18;;;3.00;;
44137;SDS011;29800;55.942;37.314;2023-01-01T08:56:40;5.25;;;3.03;;
44137;SDS011;29800;55.942;37.314;2023-01-01T08:59:06;6.10;;;2.83;;
44137;SDS011;29800;55.942;37.314;2023-01-01T09:01:33;7.55;;;3.28;;
44137;SDS011;29800;55.942;37.314;2023-01-01T09:03:59;10.32;;;3.70;;
44137;SDS011;29800;55.942;37.314;2023-01-01T09:06:25;5.65;;;2.85;;
44137;SDS011;29800;55.942;37.314;2023-01-01T09:08:51;5.82;;;3.15;;
44137;SDS011;29800;55.942;37.314;2023-01-01T09:13:49;8.23;;;3.47;;
44137;SDS011;29800;55.942;37.314;2023-01-01T09:16:16;10.05;;;3.38;;
44137;SDS011;29800;55.942;37.314;2023-01-01T09:18:42;5.60;;;3.15;;
44137;SDS011;29800;55.942;37.314;2023-01-01T09:21:08;8.23;;;3.53;;
44137;SDS011;29800;55.942;37.314;2023-01-01T09:23:35;8.25;;;3.30;;
44137;SDS011;29800;55.942;37.314;2023-01-01T09:26:02;9.10;;;2.95;;
44137;SDS011;29800;55.942;37.314;2023-01-01T09:28:29;6.25;;;3.75;;
44137;SDS011;29800;55.942;37.314;2023-01-01T09:30:55;6.30;;;3.80;;
44137;SDS011;29800;55.942;37.314;2023-01-01T09:33:21;6.00;;;3.70;;
44137;SDS011;29800;55.942;37.314;2023-01-01T09:35:48;10.02;;;3.70;;
44137;SDS011;29800;55.942;37.314;2023-01-01T09:38:14;6.63;;;3.70;;
44137;SDS011;29800;55.942;37.314;2023-01-01T09:46:22;6.47;;;3.78;;
44137;SDS011;29800;55.942;37.314;2023-01-01T09:48:54;5.95;;;3.58;;
44137;SDS011;29800;55.942;37.314;2023-01-01T09:51:44;5.40;;;3.17;;
44137;SDS011;29800;55.942;37.314;2023-01-01T09:57:09;5.47;;;3.03;;
44137;SDS011;29800;55.942;37.314;2023-01-01T09:59:38;4.63;;;3.20;;
44137;SDS011;29800;55.942;37.314;2023-01-01T10:02:28;5.90;;;3.25;;
44137;SDS011;29800;55.942;37.314;2023-01-01T10:04:58;5.65;;;3.42;;
44137;SDS011;29800;55.942;37.314;2023-01-01T10:07:41;5.85;;;3.35;;
44137;SDS011;29800;55.942;37.314;2023-01-01T10:15:39;8.20;;;4.85;;
44137;SDS011;29800;55.942;37.314;2023-01-01T10:18:19;10.02;;;6.68;;
44137;SDS011;29800;55.942;37.314;2023-01-01T10:21:48;40.42;;;18.65;;
44137;SDS011;29800;55.942;37.314;2023-01-01T10:23:56;13.85;;;7.82;;
44137;SDS011;29800;55.942;37.314;2023-01-01T10:26:26;23.13;;;12.00;;
44137;SDS011;29800;55.942;37.314;2023-01-01T10:31:47;10.93;;;5.82;;
44137;SDS011;29800;55.942;37.314;2023-01-01T10:34:18;6.57;;;4.45;;
44137;SDS011;29800;55.942;37.314;2023-01-01T10:36:48;5.05;;;3.38;;
44137;SDS011;29800;55.942;37.314;2023-01-01T10:39:23;4.85;;;3.58;;
44137;SDS011;29800;55.942;37.314;2023-01-01T10:42:12;5.68;;;3.63;;
44137;SDS011;29800;55.942;37.314;2023-01-01T10:44:40;5.65;;;3.15;;
44137;SDS011;29800;55.942;37.314;2023-01-01T10:52:41;7.40;;;4.75;;
44137;SDS011;29800;55.942;37.314;2023-01-01T10:55:22;13.32;;;8.57;;
44137;SDS011;29800;55.942;37.314;2023-01-01T10:57:50;9.57;;;5.93;;
44137;SDS011;29800;55.942;37.314;2023-01-01T11:02:56;13.43;;;9.52;;
44137;SDS011;29800;55.942;37.314;2023-01-01T11:05:58;5.53;;;3.70;;
44137;SDS011;29800;55.942;37.314;2023-01-01T11:08:29;6.25;;;4.00;;
44137;SDS011;29800;55.942;37.314;2023-01-01T11:10:57;4.88;;;3.47;;
44137;SDS011;29800;55.942;37.314;2023-01-01T11:13:25;4.13;;;2.70;;
44137;SDS011;29800;55.942;37.314;2023-01-01T11:15:52;3.70;;;2.47;;
44137;SDS011;29800;55.942;37.314;2023-01-01T11:18:20;3.13;;;2.22;;
44137;SDS011;29800;55.942;37.314;2023-01-01T11:20:55;4.07;;;3.00;;
44137;SDS011;29800;55.942;37.314;2023-01-01T11:23:27;4.05;;;2.65;;
44137;SDS011;29800;55.942;37.314;2023-01-01T11:29:03;4.35;;;2.65;;
44137;SDS011;29800;55.942;37.314;2023-01-01T11:31:44;4.53;;;2.58;;
44137;SDS011;29800;55.942;37.314;2023-01-01T11:34:21;4.68;;;2.70;;
44137;SDS011;29800;55.942;37.314;2023-01-01T11:37:17;3.70;;;2.55;;
44137;SDS011;29800;55.942;37.314;2023-01-01T11:39:51;6.68;;;4.75;;
44137;SDS011;29800;55.942;37.314;2023-01-01T11:42:26;7.88;;;4.90;;
44137;SDS011;29800;55.942;37.314;2023-01-01T11:45:02;24.42;;;12.90;;
44137;SDS011;29800;55.942;37.314;2023-01-01T11:47:38;17.48;;;9.35;;
44137;SDS011;29800;55.942;37.314;2023-01-01T11:52:42;8.18;;;4.82;;
44137;SDS011;29800;55.942;37.314;2023-01-01T11:55:21;7.32;;;4.38;;
44137;SDS011;29800;55.942;37.314;2023-01-01T12:01:04;4.85;;;2.80;;
44137;SDS011;29800;55.942;37.314;2023-01-01T12:03:39;6.20;;;3.75;;
44137;SDS011;29800;55.942;37.314;2023-01-01T12:06:15;4.75;;;3.22;;
44137;SDS011;29800;55.942;37.314;2023-01-01T12:09:11;3.67;;;2.28;;
44137;SDS011;29800;55.942;37.314;2023-01-01T12:17:01;5.38;;;3.42;;
44137;SDS011;29800;55.942;37.314;2023-01-01T12:19:33;8.15;;;5.13;;
44137;SDS011;29800;55.942;37.314;2023-01-01T12:22:16;7.80;;;6.10;;
44137;SDS011;29800;55.942;37.314;2023-01-01T12:24:44;7.68;;;5.50;;
44137;SDS011;29800;55.942;37.314;2023-01-01T12:27:30;6.28;;;3.95;;
44137;SDS011;29800;55.942;37.314;2023-01-01T12:46:41;2.60;;;1.75;;
44137;SDS011;29800;55.942;37.314;2023-01-01T12:58:18;4.63;;;2.70;;
44137;SDS011;29800;55.942;37.314;2023-01-01T13:00:58;4.25;;;2.80;;
44137;SDS011;29800;55.942;37.314;2023-01-01T13:03:53;3.75;;;2.65;;
44137;SDS011;29800;55.942;37.314;2023-01-01T13:06:30;4.28;;;2.20;;
44137;SDS011;29800;55.942;37.314;2023-01-01T13:09:24;3.17;;;2.20;;
44137;SDS011;29800;55.942;37.314;2023-01-01T13:11:58;4.18;;;2.50;;
44137;SDS011;29800;55.942;37.314;2023-01-01T13:14:40;3.33;;;2.08;;
44137;SDS011;29800;55.942;37.314;2023-01-01T13:19:55;4.90;;;3.08;;
44137;SDS011;29800;55.942;37.314;2023-01-01T13:33:12;18.33;;;10.80;;
44137;SDS011;29800;55.942;37.314;2023-01-01T13:35:40;8.15;;;5.57;;
44137;SDS011;29800;55.942;37.314;2023-01-01T13:41:29;14.63;;;9.77;;
44137;SDS011;29800;55.942;37.314;2023-01-01T13:57:35;3.67;;;2.45;;
44137;SDS011;29800;55.942;37.314;2023-01-01T14:00:51;3.55;;;2.22;;
44137;SDS011;29800;55.942;37.314;2023-01-01T14:03:27;3.05;;;2.30;;
44137;SDS011;29800;55.942;37.314;2023-01-01T14:06:03;3.70;;;2.40;;
44137;SDS011;29800;55.942;37.314;2023-01-01T14:08:37;3.50;;;2.50;;
44137;SDS011;29800;55.942;37.314;2023-01-01T14:11:16;3.65;;;2.42;;
44137;SDS011;29800;55.942;37.314;2023-01-01T14:13:44;3.53;;;2.50;;
44137;SDS011;29800;55.942;37.314;2023-01-01T14:16:11;3.50;;;2.50;;
44137;SDS011;29800;55.942;37.314;2023-01-01T14:18:40;3.60;;;2.38;;
44137;SDS011;29800;55.942;37.314;2023-01-01T14:21:18;5.75;;;3.92;;
44137;SDS011;29800;55.942;37.314;2023-01-01T14:23:49;5.45;;;3.97;;
44137;SDS011;29800;55.942;37.314;2023-01-01T14:26:20;5.55;;;3.50;;
44137;SDS011;29800;55.942;37.314;2023-01-01T14:28:47;4.75;;;3.50;;
44137;SDS011;29800;55.942;37.314;2023-01-01T14:31:18;5.45;;;3.35;;
44137;SDS011;29800;55.942;37.314;2023-01-01T14:33:47;5.30;;;3.70;;
44137;SDS011;29800;55.942;37.314;2023-01-01T14:36:19;4.40;;;3.42;;
44137;SDS011;29800;55.942;37.314;2023-01-01T14:38:54;5.00;;;3.25;;
44137;SDS011;29800;55.942;37.314;2023-01-01T14:41:29;4.30;;;2.75;;
44137;SDS011;29800;55.942;37.314;2023-01-01T14:44:01;3.30;;;2.60;;
44137;SDS011;29800;55.942;37.314;2023-01-01T14:46:28;4.65;;;3.40;;
44137;SDS011;29800;55.942;37.314;2023-01-01T14:48:56;6.03;;;2.92;;
44137;SDS011;29800;55.942;37.314;2023-01-01T14:51:26;4.72;;;3.67;;
44137;SDS011;29800;55.942;37.314;2023-01-01T14:53:58;7.03;;;4.55;;
44137;SDS011;29800;55.942;37.314;2023-01-01T14:56:30;8.65;;;5.85;;
44137;SDS011;29800;55.942;37.314;2023-01-01T14:59:06;9.25;;;5.20;;
44137;SDS011;29800;55.942;37.314;2023-01-01T15:01:33;8.93;;;5.47;;
44137;SDS011;29800;55.942;37.314;2023-01-01T15:04:01;9.25;;;5.07;;
44137;SDS011;29800;55.942;37.314;2023-01-01T15:06:51;7.93;;;5.05;;
44137;SDS011;29800;55.942;37.314;2023-01-01T15:11:50;3.42;;;2.45;;
44137;SDS011;29800;55.942;37.314;2023-01-01T15:17:02;4.38;;;3.00;;
44137;SDS011;29800;55.942;37.314;2023-01-01T15:19:31;4.57;;;2.72;;
44137;SDS011;29800;55.942;37.314;2023-01-01T15:22:00;3.55;;;2.42;;
44137;SDS011;29800;55.942;37.314;2023-01-01T15:24:32;4.50;;;2.85;;
44137;SDS011;29800;55.942;37.314;2023-01-01T15:27:02;3.10;;;2.13;;
44137;SDS011;29800;55.942;37.314;2023-01-01T15:29:35;3.25;;;2.20;;
44137;SDS011;29800;55.942;37.314;2023-01-01T15:32:10;4.63;;;2.70;;
44137;SDS011;29800;55.942;37.314;2023-01-01T15:34:46;3.10;;;2.25;;
44137;SDS011;29800;55.942;37.314;2023-01-01T15:37:41;3.45;;;1.95;;
44137;SDS011;29800;55.942;37.314;2023-01-01T15:42:40;3.92;;;2.28;;
44137;SDS011;29800;55.942;37.314;2023-01-01T15:47:43;3.00;;;1.95;;
44137;SDS011;29800;55.942;37.314;2023-01-01T15:50:10;4.05;;;2.50;;
44137;SDS011;29800;55.942;37.314;2023-01-01T15:52:48;4.78;;;2.70;;
44137;SDS011;29800;55.942;37.314;2023-01-01T15:55:36;4.35;;;2.78;;
44137;SDS011;29800;55.942;37.314;2023-01-01T15:58:12;4.05;;;2.58;;
44137;SDS011;29800;55.942;37.314;2023-01-01T16:00:55;8.77;;;3.83;;
44137;SDS011;29800;55.942;37.314;2023-01-01T16:03:24;5.43;;;3.90;;
44137;SDS011;29800;55.942;37.314;2023-01-01T16:05:53;8.27;;;5.35;;
44137;SDS011;29800;55.942;37.314;2023-01-01T16:08:20;5.75;;;3.97;;
44137;SDS011;29800;55.942;37.314;2023-01-01T16:10:47;4.20;;;2.83;;
44137;SDS011;29800;55.942;37.314;2023-01-01T16:13:14;5.00;;;3.33;;
44137;SDS011;29800;55.942;37.314;2023-01-01T16:15:52;4.88;;;2.60;;
44137;SDS011;29800;55.942;37.314;2023-01-01T16:18:23;6.40;;;2.70;;
44137;SDS011;29800;55.942;37.314;2023-01-01T16:20:53;3.30;;;2.45;;
44137;SDS011;29800;55.942;37.314;2023-01-01T16:23:20;4.65;;;2.50;;
44137;SDS011;29800;55.942;37.314;2023-01-01T16:25:46;3.33;;;2.13;;
44137;SDS011;29800;55.942;37.314;2023-01-01T16:28:12;3.63;;;2.20;;
44137;SDS011;29800;55.942;37.314;2023-01-01T16:30:39;3.90;;;2.40;;
44137;SDS011;29800;55.942;37.314;2023-01-01T16:33:10;3.70;;;2.40;;
44137;SDS011;29800;55.942;37.314;2023-01-01T16:35:39;3.10;;;2.10;;
44137;SDS011;29800;55.942;37.314;2023-01-01T16:38:05;3.45;;;2.50;;
44137;SDS011;29800;55.942;37.314;2023-01-01T16:40:32;5.28;;;2.70;;
44137;SDS011;29800;55.942;37.314;2023-01-01T16:42:58;3.72;;;2.47;;
44137;SDS011;29800;55.942;37.314;2023-01-01T16:45:25;4.47;;;3.22;;
44137;SDS011;29800;55.942;37.314;2023-01-01T16:47:51;5.20;;;2.88;;
44137;SDS011;29800;55.942;37.314;2023-01-01T16:50:19;4.50;;;3.10;;
44137;SDS011;29800;55.942;37.314;2023-01-01T16:52:45;4.57;;;2.92;;
44137;SDS011;29800;55.942;37.314;2023-01-01T16:55:11;3.90;;;2.83;;
44137;SDS011;29800;55.942;37.314;2023-01-01T16:57:38;5.03;;;3.35;;
44137;SDS011;29800;55.942;37.314;2023-01-01T17:00:05;5.53;;;4.03;;
44137;SDS011;29800;55.942;37.314;2023-01-01T17:02:31;4.32;;;3.28;;
44137;SDS011;29800;55.942;37.314;2023-01-01T17:04:58;4.15;;;2.80;;
44137;SDS011;29800;55.942;37.314;2023-01-01T17:07:23;3.95;;;2.97;;
44137;SDS011;29800;55.942;37.314;2023-01-01T17:09:50;28.77;;;19.90;;
44137;SDS011;29800;55.942;37.314;2023-01-01T17:12:16;11.80;;;9.30;;